sensor_id;sensor_type;location;lat;lon;timestamp;P1;durP1;ratioP1;P2;durP2;ratioP2
64571;SDS011;51155;51.984;21.208;2022-12-26T11:16:10;12.50;;;6.40;;
64571;SDS011;51155;51.984;21.208;2022-12-26T11:18:47;10.20;;;5.40;;
64571;SDS011;51155;51.984;21.208;2022-12-26T11:21:25;9.60;;;5.40;;
64571;SDS011;51155;51.984;21.208;2022-12-26T11:26:38;9.20;;;5.70;;
64571;SDS011;51155;51.984;21.208;2022-12-26T11:29:12;11.40;;;5.80;;
64571;SDS011;51155;51.984;21.208;2022-12-26T11:34:39;12.70;;;5.90;;
64571;SDS011;51155;51.984;21.208;2022-12-26T11:37:28;11.20;;;5.60;;
64571;SDS011;51155;51.984;21.208;2022-12-26T11:40:00;11.00;;;5.20;;
64571;SDS011;51155;51.984;21.208;2022-12-26T11:42:31;8.50;;;5.20;;
64571;SDS011;51155;51.984;21.208;2022-12-26T11:45:03;9.90;;;5.60;;
64571;SDS011;51155;51.984;21.208;2022-12-26T11:47:43;9.50;;;5.70;;
64571;SDS011;51155;51.984;21.208;2022-12-26T11:50:15;10.70;;;5.60;;
64571;SDS011;51155;51.984;21.208;2022-12-26T11:55:31;9.40;;;5.00;;
64571;SDS011;51155;51.984;21.208;2022-12-26T11:58:22;10.30;;;5.30;;
64571;SDS011;51155;51.984;21.208;2022-12-26T12:03:46;12.90;;;6.00;;
64571;SDS011;51155;51.984;21.208;2022-12-26T12:06:37;9.40;;;5.10;;
64571;SDS011;51155;51.984;21.208;2022-12-26T12:12:34;8.50;;;4.60;;
64571;SDS011;51155;51.984;21.208;2022-12-26T12:15:31;12.20;;;5.00;;
64571;SDS011;51155;51.984;21.208;2022-12-26T12:18:13;12.60;;;4.90;;
64571;SDS011;51155;51.984;21.208;2022-12-26T12:26:37;9.00;;;4.90;;
64571;SDS011;51155;51.984;21.208;2022-12-26T12:43:41;11.00;;;5.50;;
64571;SDS011;51155;51.984;21.208;2022-12-26T12:54:51;9.60;;;5.60;;
64571;SDS011;51155;51.984;21.208;2022-12-26T13:02:52;10.00;;;5.50;;
64571;SDS011;51155;51.984;21.208;2022-12-26T13:08:19;9.30;;;5.30;;
64571;SDS011;51155;51.984;21.208;2022-12-26T13:11:02;14.70;;;5.60;;
64571;SDS011;51155;51.984;21.208;2022-12-26T13:14:04;8.70;;;5.20;;
64571;SDS011;51155;51.984;21.208;2022-12-26T13:16:38;8.50;;;5.00;;
64571;SDS011;51155;51.984;21.208;2022-12-26T13:20:06;10.50;;;4.90;;
64571;SDS011;51155;51.984;21.208;2022-12-26T13:22:46;8.90;;;5.00;;
64571;SDS011;51155;51.984;21.208;2022-12-26T13:25:40;8.80;;;4.70;;
64571;SDS011;51155;51.984;21.208;2022-12-26T13:28:18;8.20;;;4.90;;
64571;SDS011;51155;51.984;21.208;2022-12-26T13:30:54;8.60;;;5.00;;
64571;SDS011;51155;51.984;21.208;2022-12-26T13:33:26;6.10;;;4.30;;
64571;SDS011;51155;51.984;21.208;2022-12-26T13:36:00;6.20;;;4.40;;
64571;SDS011;51155;51.984;21.208;2022-12-26T13:41:46;6.80;;;4.00;;
64571;SDS011;51155;51.984;21.208;2022-12-26T13:44:37;8.10;;;4.90;;
64571;SDS011;51155;51.984;21.208;2022-12-26T13:47:32;10.50;;;5.30;;
64571;SDS011;51155;51.984;21.208;2022-12-26T13:55:55;8.30;;;4.60;;
64571;SDS011;51155;51.984;21.208;2022-12-26T14:05:05;8.90;;;4.90;;
64571;SDS011;51155;51.984;21.208;2022-12-26T14:07:44;6.50;;;3.90;;
64571;SDS011;51155;51.984;21.208;2022-12-26T14:10:56;8.10;;;4.60;;
64571;SDS011;51155;51.984;21.208;2022-12-26T14:16:28;5.80;;;4.00;;
64571;SDS011;51155;51.984;21.208;2022-12-26T14:24:25;5.90;;;4.00;;
64571;SDS011;51155;51.984;21.208;2022-12-26T14:27:25;7.50;;;4.00;;
64571;SDS011;51155;51.984;21.208;2022-12-26T14:32:54;7.20;;;4.10;;
64571;SDS011;51155;51.984;21.208;2022-12-26T14:35:45;8.40;;;4.70;;
64571;SDS011;51155;51.984;21.208;2022-12-26T14:41:17;7.30;;;4.60;;
64571;SDS011;51155;51.984;21.208;2022-12-26T14:44:16;6.60;;;4.00;;
64571;SDS011;51155;51.984;21.208;2022-12-26T14:47:00;6.20;;;4.10;;
64571;SDS011;51155;51.984;21.208;2022-12-26T14:54:56;6.70;;;4.20;;
64571;SDS011;51155;51.984;21.208;2022-12-26T15:00:28;6.80;;;4.10;;
64571;SDS011;51155;51.984;21.208;2022-12-26T15:03:10;6.00;;;4.30;;
64571;SDS011;51155;51.984;21.208;2022-12-26T15:05:43;6.50;;;3.80;;
64571;SDS011;51155;51.984;21.208;2022-12-26T15:08:45;5.80;;;4.20;;
64571;SDS011;51155;51.984;21.208;2022-12-26T15:11:31;6.50;;;4.50;;
64571;SDS011;51155;51.984;21.208;2022-12-26T15:26:06;4.90;;;3.60;;
64571;SDS011;51155;51.984;21.208;2022-12-26T15:28:59;6.50;;;4.50;;
64571;SDS011;51155;51.984;21.208;2022-12-26T15:45:24;6.20;;;4.10;;
64571;SDS011;51155;51.984;21.208;2022-12-26T15:51:06;6.50;;;4.30;;
64571;SDS011;51155;51.984;21.208;2022-12-26T16:10:33;5.90;;;3.90;;
64571;SDS011;51155;51.984;21.208;2022-12-26T16:15:47;6.40;;;3.90;;
64571;SDS011;51155;51.984;21.208;2022-12-26T16:18:25;5.20;;;3.80;;
64571;SDS011;51155;51.984;21.208;2022-12-26T16:21:00;6.10;;;4.10;;
64571;SDS011;51155;51.984;21.208;2022-12-26T16:23:52;5.50;;;3.70;;
64571;SDS011;51155;51.984;21.208;2022-12-26T16:26:28;5.40;;;3.70;;
64571;SDS011;51155;51.984;21.208;2022-12-26T16:29:00;7.20;;;4.30;;
64571;SDS011;51155;51.984;21.208;2022-12-26T16:31:31;6.10;;;4.50;;
64571;SDS011;51155;51.984;21.208;2022-12-26T16:34:02;6.30;;;4.30;;
64571;SDS011;51155;51.984;21.208;2022-12-26T16:36:34;6.60;;;3.80;;
64571;SDS011;51155;51.984;21.208;2022-12-26T16:39:10;6.40;;;4.40;;
64571;SDS011;51155;51.984;21.208;2022-12-26T16:42:06;6.40;;;4.30;;
64571;SDS011;51155;51.984;21.208;2022-12-26T16:44:41;5.80;;;4.10;;
64571;SDS011;51155;51.984;21.208;2022-12-26T16:47:14;7.00;;;4.10;;
64571;SDS011;51155;51.984;21.208;2022-12-26T16:49:46;6.10;;;4.40;;
64571;SDS011;51155;51.984;21.208;2022-12-26T16:58:10;7.40;;;4.60;;
64571;SDS011;51155;51.984;21.208;2022-12-26T17:00:47;5.90;;;4.10;;
64571;SDS011;51155;51.984;21.208;2022-12-26T17:03:34;6.80;;;4.20;;
64571;SDS011;51155;51.984;21.208;2022-12-26T17:06:10;6.40;;;4.40;;
64571;SDS011;51155;51.984;21.208;2022-12-26T17:08:45;5.40;;;4.20;;
64571;SDS011;51155;51.984;21.208;2022-12-26T17:11:24;5.60;;;4.00;;
64571;SDS011;51155;51.984;21.208;2022-12-26T17:13:56;5.90;;;4.00;;
64571;SDS011;51155;51.984;21.208;2022-12-26T17:16:29;7.20;;;4.20;;
64571;SDS011;51155;51.984;21.208;2022-12-26T17:19:09;5.70;;;4.00;;
64571;SDS011;51155;51.984;21.208;2022-12-26T17:21:41;5.70;;;4.20;;
64571;SDS011;51155;51.984;21.208;2022-12-26T17:24:24;5.80;;;4.10;;
64571;SDS011;51155;51.984;21.208;2022-12-26T17:29:58;5.70;;;3.90;;
64571;SDS011;51155;51.984;21.208;2022-12-26T17:32:39;5.40;;;4.00;;
64571;SDS011;51155;51.984;21.208;2022-12-26T17:35:18;7.10;;;4.60;;
64571;SDS011;51155;51.984;21.208;2022-12-26T17:37:58;5.30;;;4.00;;
64571;SDS011;51155;51.984;21.208;2022-12-26T17:40:35;5.90;;;4.30;;
64571;SDS011;51155;51.984;21.208;2022-12-26T17:45:42;5.50;;;4.00;;
64571;SDS011;51155;51.984;21.208;2022-12-26T17:48:17;6.50;;;4.10;;
64571;SDS011;51155;51.984;21.208;2022-12-26T17:50:53;6.10;;;4.10;;
64571;SDS011;51155;51.984;21.208;2022-12-26T17:56:15;5.40;;;3.80;;
64571;SDS011;51155;51.984;21.208;2022-12-26T17:58:48;5.10;;;4.10;;
64571;SDS011;51155;51.984;21.208;2022-12-26T18:01:19;4.80;;;3.90;;
64571;SDS011;51155;51.984;21.208;2022-12-26T18:03:52;6.20;;;3.60;;
64571;SDS011;51155;51.984;21.208;2022-12-26T18:06:24;6.40;;;4.20;;
64571;SDS011;51155;51.984;21.208;2022-12-26T18:08:55;5.60;;;4.20;;
64571;SDS011;51155;51.984;21.208;2022-12-26T18:11:28;6.50;;;3.80;;
64571;SDS011;51155;51.984;21.208;2022-12-26T18:13:59;6.20;;;4.20;;
64571;SDS011;51155;51.984;21.208;2022-12-26T18:16:30;7.20;;;4.10;;
64571;SDS011;51155;51.984;21.208;2022-12-26T18:19:03;5.20;;;4.00;;
64571;SDS011;51155;51.984;21.208;2022-12-26T18:21:34;6.60;;;4.10;;
64571;SDS011;51155;51.984;21.208;2022-12-26T18:24:05;5.10;;;3.70;;
64571;SDS011;51155;51.984;21.208;2022-12-26T18:26:37;5.00;;;3.70;;
64571;SDS011;51155;51.984;21.208;2022-12-26T18:29:08;5.90;;;3.90;;
64571;SDS011;51155;51.984;21.208;2022-12-26T18:31:40;5.60;;;3.70;;
64571;SDS011;51155;51.984;21.208;2022-12-26T18:34:11;5.90;;;3.60;;
64571;SDS011;51155;51.984;21.208;2022-12-26T18:36:43;5.40;;;3.70;;
64571;SDS011;51155;51.984;21.208;2022-12-26T18:39:15;5.00;;;3.50;;
64571;SDS011;51155;51.984;21.208;2022-12-26T18:41:47;5.70;;;4.00;;
64571;SDS011;51155;51.984;21.208;2022-12-26T18:44:18;4.60;;;3.20;;
64571;SDS011;51155;51.984;21.208;2022-12-26T18:46:50;5.30;;;4.00;;
64571;SDS011;51155;51.984;21.208;2022-12-26T18:49:21;5.30;;;3.80;;
64571;SDS011;51155;51.984;21.208;2022-12-26T18:51:53;6.00;;;4.10;;
64571;SDS011;51155;51.984;21.208;2022-12-26T18:54:24;5.70;;;3.90;;
64571;SDS011;51155;51.984;21.208;2022-12-26T18:56:55;5.50;;;3.80;;
64571;SDS011;51155;51.984;21.208;2022-12-26T18:59:26;5.20;;;3.80;;
64571;SDS011;51155;51.984;21.208;2022-12-26T19:01:57;6.20;;;3.80;;
64571;SDS011;51155;51.984;21.208;2022-12-26T19:04:29;5.50;;;3.80;;
64571;SDS011;51155;51.984;21.208;2022-12-26T19:07:00;4.70;;;3.40;;
64571;SDS011;51155;51.984;21.208;2022-12-26T19:09:32;5.50;;;3.80;;
64571;SDS011;51155;51.984;21.208;2022-12-26T19:12:03;6.10;;;3.70;;
64571;SDS011;51155;51.984;21.208;2022-12-26T19:14:34;5.30;;;3.20;;
64571;SDS011;51155;51.984;21.208;2022-12-26T19:17:06;9.90;;;4.60;;
64571;SDS011;51155;51.984;21.208;2022-12-26T19:19:37;6.10;;;3.60;;
64571;SDS011;51155;51.984;21.208;2022-12-26T19:22:08;8.40;;;4.40;;
64571;SDS011;51155;51.984;21.208;2022-12-26T19:24:40;5.00;;;3.80;;
64571;SDS011;51155;51.984;21.208;2022-12-26T19:27:11;5.20;;;3.60;;
64571;SDS011;51155;51.984;21.208;2022-12-26T19:29:43;6.20;;;3.80;;
64571;SDS011;51155;51.984;21.208;2022-12-26T19:32:14;7.30;;;3.90;;
64571;SDS011;51155;51.984;21.208;2022-12-26T19:34:45;7.00;;;4.20;;
64571;SDS011;51155;51.984;21.208;2022-12-26T19:37:17;5.40;;;3.50;;
64571;SDS011;51155;51.984;21.208;2022-12-26T19:39:48;6.00;;;3.70;;
64571;SDS011;51155;51.984;21.208;2022-12-26T19:42:20;4.10;;;3.10;;
64571;SDS011;51155;51.984;21.208;2022-12-26T19:44:51;4.50;;;3.60;;
64571;SDS011;51155;51.984;21.208;2022-12-26T19:47:23;5.10;;;3.50;;
64571;SDS011;51155;51.984;21.208;2022-12-26T19:49:54;4.60;;;3.30;;
64571;SDS011;51155;51.984;21.208;2022-12-26T19:52:25;5.70;;;3.90;;
64571;SDS011;51155;51.984;21.208;2022-12-26T19:54:56;6.40;;;3.40;;
64571;SDS011;51155;51.984;21.208;2022-12-26T19:57:28;5.20;;;3.70;;
64571;SDS011;51155;51.984;21.208;2022-12-26T19:59:59;5.20;;;3.70;;
64571;SDS011;51155;51.984;21.208;2022-12-26T20:02:30;7.20;;;3.50;;
64571;SDS011;51155;51.984;21.208;2022-12-26T20:05:02;6.60;;;3.80;;
64571;SDS011;51155;51.984;21.208;2022-12-26T20:07:33;4.50;;;3.20;;
64571;SDS011;51155;51.984;21.208;2022-12-26T20:10:05;6.50;;;3.60;;
64571;SDS011;51155;51.984;21.208;2022-12-26T20:12:36;5.30;;;3.60;;
64571;SDS011;51155;51.984;21.208;2022-12-26T20:15:07;4.20;;;3.10;;
64571;SDS011;51155;51.984;21.208;2022-12-26T20:17:39;4.70;;;3.30;;
64571;SDS011;51155;51.984;21.208;2022-12-26T20:20:10;5.00;;;3.20;;
64571;SDS011;51155;51.984;21.208;2022-12-26T20:22:41;5.30;;;3.30;;
64571;SDS011;51155;51.984;21.208;2022-12-26T20:25:20;4.60;;;3.40;;
64571;SDS011;51155;51.984;21.208;2022-12-26T20:27:51;4.70;;;3.90;;
64571;SDS011;51155;51.984;21.208;2022-12-26T20:30:22;5.10;;;3.60;;
64571;SDS011;51155;51.984;21.208;2022-12-26T20:32:54;6.40;;;3.30;;
64571;SDS011;51155;51.984;21.208;2022-12-26T20:35:25;5.60;;;3.60;;
64571;SDS011;51155;51.984;21.208;2022-12-26T20:37:56;4.80;;;3.40;;
64571;SDS011;51155;51.984;21.208;2022-12-26T20:40:27;5.30;;;3.40;;
64571;SDS011;51155;51.984;21.208;2022-12-26T20:42:59;5.50;;;3.40;;
64571;SDS011;51155;51.984;21.208;2022-12-26T20:45:30;4.60;;;3.20;;
64571;SDS011;51155;51.984;21.208;2022-12-26T20:48:01;4.40;;;3.20;;
64571;SDS011;51155;51.984;21.208;2022-12-26T20:50:33;5.20;;;3.50;;
64571;SDS011;51155;51.984;21.208;2022-12-26T20:53:04;5.20;;;3.60;;
64571;SDS011;51155;51.984;21.208;2022-12-26T20:55:35;5.50;;;3.50;;
64571;SDS011;51155;51.984;21.208;2022-12-26T20:58:07;5.90;;;3.60;;
64571;SDS011;51155;51.984;21.208;2022-12-26T21:00:38;4.10;;;3.30;;
64571;SDS011;51155;51.984;21.208;2022-12-26T21:03:14;6.00;;;3.50;;
64571;SDS011;51155;51.984;21.208;2022-12-26T21:05:46;5.20;;;3.30;;
64571;SDS011;51155;51.984;21.208;2022-12-26T21:08:17;5.10;;;3.10;;
64571;SDS011;51155;51.984;21.208;2022-12-26T21:10:48;6.10;;;3.30;;
64571;SDS011;51155;51.984;21.208;2022-12-26T21:13:20;4.50;;;3.20;;
64571;SDS011;51155;51.984;21.208;2022-12-26T21:15:51;4.30;;;3.10;;
64571;SDS011;51155;51.984;21.208;2022-12-26T21:18:22;4.30;;;3.00;;
64571;SDS011;51155;51.984;21.208;2022-12-26T21:20:53;5.00;;;3.00;;
64571;SDS011;51155;51.984;21.208;2022-12-26T21:23:25;5.00;;;3.40;;
64571;SDS011;51155;51.984;21.208;2022-12-26T21:25:56;4.90;;;3.70;;
64571;SDS011;51155;51.984;21.208;2022-12-26T21:28:28;4.70;;;3.40;;
64571;SDS011;51155;51.984;21.208;2022-12-26T21:30:59;4.70;;;3.20;;
64571;SDS011;51155;51.984;21.208;2022-12-26T21:33:31;4.60;;;3.40;;
64571;SDS011;51155;51.984;21.208;2022-12-26T21:36:10;4.40;;;3.10;;
64571;SDS011;51155;51.984;21.208;2022-12-26T21:38:42;4.70;;;2.90;;
64571;SDS011;51155;51.984;21.208;2022-12-26T21:41:15;5.00;;;3.50;;
64571;SDS011;51155;51.984;21.208;2022-12-26T21:43:46;4.60;;;3.20;;
64571;SDS011;51155;51.984;21.208;2022-12-26T21:46:19;5.00;;;3.30;;
64571;SDS011;51155;51.984;21.208;2022-12-26T21:48:50;5.00;;;3.70;;
64571;SDS011;51155;51.984;21.208;2022-12-26T21:51:24;4.90;;;2.90;;
64571;SDS011;51155;51.984;21.208;2022-12-26T21:53:56;6.40;;;3.20;;
64571;SDS011;51155;51.984;21.208;2022-12-26T21:56:47;4.50;;;3.10;;
64571;SDS011;51155;51.984;21.208;2022-12-26T21:59:18;4.90;;;3.30;;
64571;SDS011;51155;51.984;21.208;2022-12-26T22:02:12;4.50;;;3.20;;
64571;SDS011;51155;51.984;21.208;2022-12-26T22:05:03;6.60;;;3.40;;
64571;SDS011;51155;51.984;21.208;2022-12-26T22:07:35;7.50;;;3.40;;
64571;SDS011;51155;51.984;21.208;2022-12-26T22:10:07;5.30;;;3.10;;
64571;SDS011;51155;51.984;21.208;2022-12-26T22:12:38;8.30;;;3.80;;
64571;SDS011;51155;51.984;21.208;2022-12-26T22:15:27;5.60;;;3.20;;
64571;SDS011;51155;51.984;21.208;2022-12-26T22:18:18;5.00;;;3.20;;
64571;SDS011;51155;51.984;21.208;2022-12-26T22:20:49;5.40;;;3.10;;
64571;SDS011;51155;51.984;21.208;2022-12-26T22:23:20;4.90;;;3.20;;
64571;SDS011;51155;51.984;21.208;2022-12-26T22:25:53;5.80;;;3.30;;
64571;SDS011;51155;51.984;21.208;2022-12-26T22:30:56;6.20;;;3.20;;
64571;SDS011;51155;51.984;21.208;2022-12-26T22:33:28;6.10;;;3.10;;
64571;SDS011;51155;51.984;21.208;2022-12-26T22:36:08;6.30;;;3.40;;
64571;SDS011;51155;51.984;21.208;2022-12-26T22:38:39;5.60;;;3.40;;
64571;SDS011;51155;51.984;21.208;2022-12-26T22:41:10;6.20;;;3.70;;
64571;SDS011;51155;51.984;21.208;2022-12-26T22:43:42;9.00;;;3.60;;
64571;SDS011;51155;51.984;21.208;2022-12-26T22:46:13;5.70;;;3.70;;
64571;SDS011;51155;51.984;21.208;2022-12-26T22:48:45;7.40;;;3.30;;
64571;SDS011;51155;51.984;21.208;2022-12-26T22:51:19;4.90;;;3.30;;
64571;SDS011;51155;51.984;21.208;2022-12-26T22:53:54;8.30;;;3.50;;
64571;SDS011;51155;51.984;21.208;2022-12-26T22:56:26;6.40;;;3.60;;
64571;SDS011;51155;51.984;21.208;2022-12-26T22:58:58;4.50;;;3.00;;
64571;SDS011;51155;51.984;21.208;2022-12-26T23:01:35;4.30;;;3.00;;
64571;SDS011;51155;51.984;21.208;2022-12-26T23:04:09;4.20;;;2.70;;
64571;SDS011;51155;51.984;21.208;2022-12-26T23:06:41;5.20;;;3.20;;
64571;SDS011;51155;51.984;21.208;2022-12-26T23:09:14;4.40;;;2.70;;
64571;SDS011;51155;51.984;21.208;2022-12-26T23:11:46;4.80;;;3.10;;
64571;SDS011;51155;51.984;21.208;2022-12-26T23:14:37;5.40;;;3.20;;
64571;SDS011;51155;51.984;21.208;2022-12-26T23:17:11;5.50;;;3.10;;
64571;SDS011;51155;51.984;21.208;2022-12-26T23:20:03;6.60;;;3.20;;
64571;SDS011;51155;51.984;21.208;2022-12-26T23:22:56;6.50;;;3.30;;
64571;SDS011;51155;51.984;21.208;2022-12-26T23:25:29;5.70;;;3.50;;
64571;SDS011;51155;51.984;21.208;2022-12-26T23:28:00;4.20;;;3.20;;
64571;SDS011;51155;51.984;21.208;2022-12-26T23:30:50;7.70;;;3.00;;
64571;SDS011;51155;51.984;21.208;2022-12-26T23:33:21;6.20;;;3.10;;
64571;SDS011;51155;51.984;21.208;2022-12-26T23:35:53;4.80;;;3.30;;
64571;SDS011;51155;51.984;21.208;2022-12-26T23:38:24;4.00;;;2.20;;
64571;SDS011;51155;51.984;21.208;2022-12-26T23:40:55;4.90;;;3.20;;
64571;SDS011;51155;51.984;21.208;2022-12-26T23:43:26;5.10;;;3.10;;
64571;SDS011;51155;51.984;21.208;2022-12-26T23:45:59;5.40;;;3.40;;
64571;SDS011;51155;51.984;21.208;2022-12-26T23:48:32;4.60;;;2.90;;
64571;SDS011;51155;51.984;21.208;2022-12-26T23:51:05;5.40;;;3.00;;
64571;SDS011;51155;51.984;21.208;2022-12-26T23:53:37;4.80;;;3.40;;
64571;SDS011;51155;51.984;21.208;2022-12-26T23:56:08;3.90;;;2.70;;
64571;SDS011;51155;51.984;21.208;2022-12-26T23:58:40;5.50;;;3.20;;
